<?xml version="1.0" encoding="UTF-8" standalone="no" ?>
<gpx xmlns="http://www.topografix.com/GPX/1/1" xmlns:xsi="http://www.w3.org/2001/XMLSchema-instance" xsi:schemaLocation="http://www.topografix.com/GPX/1/1 http://www.topografix.com/GPX/1/1/gpx.xsd" version="1.1" creator="VisuGPX - https://www.visugpx.com">
  <metadata>
    <name>Rando santé</name>
    <desc><![CDATA[Rando santé au Mont Chauvety et tour du rocher de Bouligny]]></desc>
  </metadata>
  <trk>
    <name><![CDATA[29 déc. 2015 09:22:29]]></name>
    <cmt><![CDATA[29 déc. 2015 09:22:29]]></cmt>
    <trkseg>
      <trkpt lat="48.39213" lon="2.70345">
        <ele>85</ele>
        <time>2015-12-29T08:22:30Z</time>
      </trkpt>
      <trkpt lat="48.39207" lon="2.70351">
        <ele>84</ele>
        <time>2015-12-29T08:22:33Z</time>
      </trkpt>
      <trkpt lat="48.39203" lon="2.70358">
        <ele>84</ele>
        <time>2015-12-29T08:22:35Z</time>
      </trkpt>
      <trkpt lat="48.39201" lon="2.70363">
        <ele>84</ele>
        <time>2015-12-29T08:22:49Z</time>
      </trkpt>
      <trkpt lat="48.392" lon="2.70368">
        <ele>85</ele>
        <time>2015-12-29T08:23:26Z</time>
      </trkpt>
      <trkpt lat="48.39198" lon="2.7037">
        <ele>85</ele>
        <time>2015-12-29T08:23:53Z</time>
      </trkpt>
      <trkpt lat="48.39195" lon="2.70375">
        <ele>86</ele>
        <time>2015-12-29T08:24:00Z</time>
      </trkpt>
      <trkpt lat="48.3919" lon="2.70379">
        <ele>86</ele>
        <time>2015-12-29T08:24:05Z</time>
      </trkpt>
      <trkpt lat="48.39189" lon="2.70375">
        <ele>86</ele>
        <time>2015-12-29T08:24:12Z</time>
      </trkpt>
      <trkpt lat="48.39182" lon="2.70376">
        <ele>87</ele>
        <time>2015-12-29T08:24:56Z</time>
      </trkpt>
      <trkpt lat="48.39177" lon="2.70379">
        <ele>87</ele>
        <time>2015-12-29T08:25:01Z</time>
      </trkpt>
      <trkpt lat="48.39173" lon="2.70382">
        <ele>87</ele>
        <time>2015-12-29T08:25:06Z</time>
      </trkpt>
      <trkpt lat="48.39162" lon="2.70384">
        <ele>86</ele>
        <time>2015-12-29T08:25:20Z</time>
      </trkpt>
      <trkpt lat="48.39152" lon="2.70391">
        <ele>87</ele>
        <time>2015-12-29T08:25:30Z</time>
      </trkpt>
      <trkpt lat="48.39147" lon="2.70394">
        <ele>86</ele>
        <time>2015-12-29T08:25:34Z</time>
      </trkpt>
      <trkpt lat="48.39142" lon="2.70397">
        <ele>86</ele>
        <time>2015-12-29T08:25:40Z</time>
      </trkpt>
      <trkpt lat="48.39124" lon="2.70405">
        <ele>89</ele>
        <time>2015-12-29T08:26:48Z</time>
      </trkpt>
      <trkpt lat="48.39114" lon="2.70409">
        <ele>90</ele>
        <time>2015-12-29T08:26:56Z</time>
      </trkpt>
      <trkpt lat="48.39109" lon="2.70412">
        <ele>90</ele>
        <time>2015-12-29T08:27:00Z</time>
      </trkpt>
      <trkpt lat="48.39104" lon="2.70415">
        <ele>90</ele>
        <time>2015-12-29T08:27:03Z</time>
      </trkpt>
      <trkpt lat="48.39094" lon="2.70415">
        <ele>88</ele>
        <time>2015-12-29T08:27:12Z</time>
      </trkpt>
      <trkpt lat="48.39089" lon="2.70417">
        <ele>88</ele>
        <time>2015-12-29T08:27:17Z</time>
      </trkpt>
      <trkpt lat="48.39073" lon="2.70423">
        <ele>90</ele>
        <time>2015-12-29T08:27:29Z</time>
      </trkpt>
      <trkpt lat="48.39067" lon="2.70423">
        <ele>90</ele>
        <time>2015-12-29T08:27:33Z</time>
      </trkpt>
      <trkpt lat="48.39048" lon="2.70428">
        <ele>89</ele>
        <time>2015-12-29T08:27:51Z</time>
      </trkpt>
      <trkpt lat="48.39011" lon="2.70439">
        <ele>89</ele>
        <time>2015-12-29T08:28:21Z</time>
      </trkpt>
      <trkpt lat="48.39002" lon="2.70439">
        <ele>89</ele>
        <time>2015-12-29T08:28:29Z</time>
      </trkpt>
      <trkpt lat="48.38955" lon="2.70454">
        <ele>93</ele>
        <time>2015-12-29T08:29:07Z</time>
      </trkpt>
      <trkpt lat="48.38937" lon="2.70463">
        <ele>95</ele>
        <time>2015-12-29T08:29:25Z</time>
      </trkpt>
      <trkpt lat="48.38928" lon="2.70468">
        <ele>96</ele>
        <time>2015-12-29T08:29:37Z</time>
      </trkpt>
      <trkpt lat="48.38919" lon="2.70468">
        <ele>96</ele>
        <time>2015-12-29T08:29:47Z</time>
      </trkpt>
      <trkpt lat="48.3889" lon="2.70474">
        <ele>99</ele>
        <time>2015-12-29T08:30:19Z</time>
      </trkpt>
      <trkpt lat="48.3887" lon="2.70485">
        <ele>101</ele>
        <time>2015-12-29T08:30:52Z</time>
      </trkpt>
      <trkpt lat="48.38851" lon="2.70497">
        <ele>105</ele>
        <time>2015-12-29T08:31:23Z</time>
      </trkpt>
      <trkpt lat="48.38841" lon="2.705">
        <ele>106</ele>
        <time>2015-12-29T08:31:34Z</time>
      </trkpt>
      <trkpt lat="48.38813" lon="2.70506">
        <ele>112</ele>
        <time>2015-12-29T08:32:08Z</time>
      </trkpt>
      <trkpt lat="48.3881" lon="2.70505">
        <ele>113</ele>
        <time>2015-12-29T08:32:19Z</time>
      </trkpt>
      <trkpt lat="48.38805" lon="2.70507">
        <ele>114</ele>
        <time>2015-12-29T08:32:26Z</time>
      </trkpt>
      <trkpt lat="48.388" lon="2.70506">
        <ele>115</ele>
        <time>2015-12-29T08:32:32Z</time>
      </trkpt>
      <trkpt lat="48.38796" lon="2.70509">
        <ele>117</ele>
        <time>2015-12-29T08:32:39Z</time>
      </trkpt>
      <trkpt lat="48.38781" lon="2.70507">
        <ele>119</ele>
        <time>2015-12-29T08:32:52Z</time>
      </trkpt>
      <trkpt lat="48.38776" lon="2.70511">
        <ele>122</ele>
        <time>2015-12-29T08:32:59Z</time>
      </trkpt>
      <trkpt lat="48.38771" lon="2.70509">
        <ele>124</ele>
        <time>2015-12-29T08:33:06Z</time>
      </trkpt>
      <trkpt lat="48.38766" lon="2.70509">
        <ele>125</ele>
        <time>2015-12-29T08:33:13Z</time>
      </trkpt>
      <trkpt lat="48.38762" lon="2.70508">
        <ele>124</ele>
        <time>2015-12-29T08:33:23Z</time>
      </trkpt>
      <trkpt lat="48.38757" lon="2.70511">
        <ele>124</ele>
        <time>2015-12-29T08:33:29Z</time>
      </trkpt>
      <trkpt lat="48.38743" lon="2.70521">
        <ele>127</ele>
        <time>2015-12-29T08:33:49Z</time>
      </trkpt>
      <trkpt lat="48.38738" lon="2.70536">
        <ele>128</ele>
        <time>2015-12-29T08:35:18Z</time>
      </trkpt>
      <trkpt lat="48.38725" lon="2.70537">
        <ele>128</ele>
        <time>2015-12-29T08:35:25Z</time>
      </trkpt>
      <trkpt lat="48.38723" lon="2.70543">
        <ele>129</ele>
        <time>2015-12-29T08:35:32Z</time>
      </trkpt>
      <trkpt lat="48.38723" lon="2.70565">
        <ele>130</ele>
        <time>2015-12-29T08:35:49Z</time>
      </trkpt>
      <trkpt lat="48.38726" lon="2.70571">
        <ele>130</ele>
        <time>2015-12-29T08:35:54Z</time>
      </trkpt>
      <trkpt lat="48.38725" lon="2.7058">
        <ele>130</ele>
        <time>2015-12-29T08:36:00Z</time>
      </trkpt>
      <trkpt lat="48.38726" lon="2.70602">
        <ele>129</ele>
        <time>2015-12-29T08:36:13Z</time>
      </trkpt>
      <trkpt lat="48.38729" lon="2.70606">
        <ele>128</ele>
        <time>2015-12-29T08:36:19Z</time>
      </trkpt>
      <trkpt lat="48.3873" lon="2.70615">
        <ele>128</ele>
        <time>2015-12-29T08:36:29Z</time>
      </trkpt>
      <trkpt lat="48.38735" lon="2.7067">
        <ele>129</ele>
        <time>2015-12-29T08:37:01Z</time>
      </trkpt>
      <trkpt lat="48.38736" lon="2.70686">
        <ele>129</ele>
        <time>2015-12-29T08:37:10Z</time>
      </trkpt>
      <trkpt lat="48.38736" lon="2.70693">
        <ele>129</ele>
        <time>2015-12-29T08:37:16Z</time>
      </trkpt>
      <trkpt lat="48.3873" lon="2.70736">
        <ele>127</ele>
        <time>2015-12-29T08:38:09Z</time>
      </trkpt>
      <trkpt lat="48.38727" lon="2.70779">
        <ele>128</ele>
        <time>2015-12-29T08:38:47Z</time>
      </trkpt>
      <trkpt lat="48.3873" lon="2.7085">
        <ele>129</ele>
        <time>2015-12-29T08:39:23Z</time>
      </trkpt>
      <trkpt lat="48.38748" lon="2.70904">
        <ele>128</ele>
        <time>2015-12-29T08:39:54Z</time>
      </trkpt>
      <trkpt lat="48.38751" lon="2.70911">
        <ele>128</ele>
        <time>2015-12-29T08:39:59Z</time>
      </trkpt>
      <trkpt lat="48.38752" lon="2.70918">
        <ele>128</ele>
        <time>2015-12-29T08:40:05Z</time>
      </trkpt>
      <trkpt lat="48.38754" lon="2.70925">
        <ele>128</ele>
        <time>2015-12-29T08:40:09Z</time>
      </trkpt>
      <trkpt lat="48.38759" lon="2.7093">
        <ele>128</ele>
        <time>2015-12-29T08:40:13Z</time>
      </trkpt>
      <trkpt lat="48.38761" lon="2.70936">
        <ele>128</ele>
        <time>2015-12-29T08:40:18Z</time>
      </trkpt>
      <trkpt lat="48.38769" lon="2.70989">
        <ele>128</ele>
        <time>2015-12-29T08:40:48Z</time>
      </trkpt>
      <trkpt lat="48.38767" lon="2.71002">
        <ele>128</ele>
        <time>2015-12-29T08:40:53Z</time>
      </trkpt>
      <trkpt lat="48.38761" lon="2.71053">
        <ele>127</ele>
        <time>2015-12-29T08:41:23Z</time>
      </trkpt>
      <trkpt lat="48.38743" lon="2.71121">
        <ele>127</ele>
        <time>2015-12-29T08:41:57Z</time>
      </trkpt>
      <trkpt lat="48.38744" lon="2.71135">
        <ele>127</ele>
        <time>2015-12-29T08:42:07Z</time>
      </trkpt>
      <trkpt lat="48.38752" lon="2.71186">
        <ele>124</ele>
        <time>2015-12-29T08:42:33Z</time>
      </trkpt>
      <trkpt lat="48.38756" lon="2.71192">
        <ele>123</ele>
        <time>2015-12-29T08:42:37Z</time>
      </trkpt>
      <trkpt lat="48.38796" lon="2.71213">
        <ele>123</ele>
        <time>2015-12-29T08:43:07Z</time>
      </trkpt>
      <trkpt lat="48.38801" lon="2.71214">
        <ele>123</ele>
        <time>2015-12-29T08:43:11Z</time>
      </trkpt>
      <trkpt lat="48.38805" lon="2.71213">
        <ele>123</ele>
        <time>2015-12-29T08:43:16Z</time>
      </trkpt>
      <trkpt lat="48.38816" lon="2.71211">
        <ele>122</ele>
        <time>2015-12-29T08:43:24Z</time>
      </trkpt>
      <trkpt lat="48.38821" lon="2.71209">
        <ele>122</ele>
        <time>2015-12-29T08:43:28Z</time>
      </trkpt>
      <trkpt lat="48.38829" lon="2.712">
        <ele>121</ele>
        <time>2015-12-29T08:43:38Z</time>
      </trkpt>
      <trkpt lat="48.38836" lon="2.71189">
        <ele>120</ele>
        <time>2015-12-29T08:43:47Z</time>
      </trkpt>
      <trkpt lat="48.38837" lon="2.71193">
        <ele>119</ele>
        <time>2015-12-29T08:43:59Z</time>
      </trkpt>
      <trkpt lat="48.38836" lon="2.71197">
        <ele>119</ele>
        <time>2015-12-29T08:44:05Z</time>
      </trkpt>
      <trkpt lat="48.3884" lon="2.71199">
        <ele>117</ele>
        <time>2015-12-29T08:45:14Z</time>
      </trkpt>
      <trkpt lat="48.38839" lon="2.7121">
        <ele>116</ele>
        <time>2015-12-29T08:45:48Z</time>
      </trkpt>
      <trkpt lat="48.38844" lon="2.71222">
        <ele>112</ele>
        <time>2015-12-29T08:46:06Z</time>
      </trkpt>
      <trkpt lat="48.38839" lon="2.71232">
        <ele>111</ele>
        <time>2015-12-29T08:46:25Z</time>
      </trkpt>
      <trkpt lat="48.38844" lon="2.71238">
        <ele>111</ele>
        <time>2015-12-29T08:46:42Z</time>
      </trkpt>
      <trkpt lat="48.38846" lon="2.71246">
        <ele>109</ele>
        <time>2015-12-29T08:46:55Z</time>
      </trkpt>
      <trkpt lat="48.38854" lon="2.71281">
        <ele>105</ele>
        <time>2015-12-29T08:47:27Z</time>
      </trkpt>
      <trkpt lat="48.38855" lon="2.71288">
        <ele>103</ele>
        <time>2015-12-29T08:47:35Z</time>
      </trkpt>
      <trkpt lat="48.38845" lon="2.71306">
        <ele>101</ele>
        <time>2015-12-29T08:47:55Z</time>
      </trkpt>
      <trkpt lat="48.3884" lon="2.71319">
        <ele>100</ele>
        <time>2015-12-29T08:48:05Z</time>
      </trkpt>
      <trkpt lat="48.38835" lon="2.71318">
        <ele>100</ele>
        <time>2015-12-29T08:48:10Z</time>
      </trkpt>
      <trkpt lat="48.3883" lon="2.71318">
        <ele>100</ele>
        <time>2015-12-29T08:48:13Z</time>
      </trkpt>
      <trkpt lat="48.38803" lon="2.71314">
        <ele>102</ele>
        <time>2015-12-29T08:48:42Z</time>
      </trkpt>
      <trkpt lat="48.38799" lon="2.71319">
        <ele>103</ele>
        <time>2015-12-29T08:48:46Z</time>
      </trkpt>
      <trkpt lat="48.38789" lon="2.71338">
        <ele>102</ele>
        <time>2015-12-29T08:48:55Z</time>
      </trkpt>
      <trkpt lat="48.38781" lon="2.71325">
        <ele>102</ele>
        <time>2015-12-29T08:49:07Z</time>
      </trkpt>
      <trkpt lat="48.38777" lon="2.71331">
        <ele>103</ele>
        <time>2015-12-29T08:49:21Z</time>
      </trkpt>
      <trkpt lat="48.38776" lon="2.71345">
        <ele>101</ele>
        <time>2015-12-29T08:49:28Z</time>
      </trkpt>
      <trkpt lat="48.38766" lon="2.71351">
        <ele>100</ele>
        <time>2015-12-29T08:49:34Z</time>
      </trkpt>
      <trkpt lat="48.3876" lon="2.71349">
        <ele>100</ele>
        <time>2015-12-29T08:49:36Z</time>
      </trkpt>
      <trkpt lat="48.3875" lon="2.71346">
        <ele>101</ele>
        <time>2015-12-29T08:49:40Z</time>
      </trkpt>
      <trkpt lat="48.38745" lon="2.71341">
        <ele>101</ele>
        <time>2015-12-29T08:49:43Z</time>
      </trkpt>
      <trkpt lat="48.3874" lon="2.71338">
        <ele>101</ele>
        <time>2015-12-29T08:49:49Z</time>
      </trkpt>
      <trkpt lat="48.38734" lon="2.71337">
        <ele>101</ele>
        <time>2015-12-29T08:49:54Z</time>
      </trkpt>
      <trkpt lat="48.3872" lon="2.71351">
        <ele>101</ele>
        <time>2015-12-29T08:50:03Z</time>
      </trkpt>
      <trkpt lat="48.38716" lon="2.71358">
        <ele>101</ele>
        <time>2015-12-29T08:50:05Z</time>
      </trkpt>
      <trkpt lat="48.38705" lon="2.7136">
        <ele>101</ele>
        <time>2015-12-29T08:50:16Z</time>
      </trkpt>
      <trkpt lat="48.38701" lon="2.71368">
        <ele>101</ele>
        <time>2015-12-29T08:50:18Z</time>
      </trkpt>
      <trkpt lat="48.38692" lon="2.71363">
        <ele>101</ele>
        <time>2015-12-29T08:50:28Z</time>
      </trkpt>
      <trkpt lat="48.38684" lon="2.71358">
        <ele>102</ele>
        <time>2015-12-29T08:50:33Z</time>
      </trkpt>
      <trkpt lat="48.38678" lon="2.71361">
        <ele>102</ele>
        <time>2015-12-29T08:50:35Z</time>
      </trkpt>
      <trkpt lat="48.38669" lon="2.71355">
        <ele>102</ele>
        <time>2015-12-29T08:50:43Z</time>
      </trkpt>
      <trkpt lat="48.38662" lon="2.71345">
        <ele>104</ele>
        <time>2015-12-29T08:50:51Z</time>
      </trkpt>
      <trkpt lat="48.38626" lon="2.71333">
        <ele>106</ele>
        <time>2015-12-29T08:51:22Z</time>
      </trkpt>
      <trkpt lat="48.38589" lon="2.71323">
        <ele>102</ele>
        <time>2015-12-29T08:51:58Z</time>
      </trkpt>
      <trkpt lat="48.3858" lon="2.71323">
        <ele>101</ele>
        <time>2015-12-29T08:52:08Z</time>
      </trkpt>
      <trkpt lat="48.38552" lon="2.71336">
        <ele>99</ele>
        <time>2015-12-29T08:52:39Z</time>
      </trkpt>
      <trkpt lat="48.38543" lon="2.71342">
        <ele>98</ele>
        <time>2015-12-29T08:52:55Z</time>
      </trkpt>
      <trkpt lat="48.38515" lon="2.71378">
        <ele>97</ele>
        <time>2015-12-29T08:53:20Z</time>
      </trkpt>
      <trkpt lat="48.38516" lon="2.71388">
        <ele>97</ele>
        <time>2015-12-29T08:53:24Z</time>
      </trkpt>
      <trkpt lat="48.38507" lon="2.71391">
        <ele>97</ele>
        <time>2015-12-29T08:53:32Z</time>
      </trkpt>
      <trkpt lat="48.38498" lon="2.71382">
        <ele>97</ele>
        <time>2015-12-29T08:53:42Z</time>
      </trkpt>
      <trkpt lat="48.38491" lon="2.71391">
        <ele>96</ele>
        <time>2015-12-29T08:53:47Z</time>
      </trkpt>
      <trkpt lat="48.38486" lon="2.71404">
        <ele>95</ele>
        <time>2015-12-29T08:53:52Z</time>
      </trkpt>
      <trkpt lat="48.38481" lon="2.71404">
        <ele>95</ele>
        <time>2015-12-29T08:53:56Z</time>
      </trkpt>
      <trkpt lat="48.38473" lon="2.71398">
        <ele>95</ele>
        <time>2015-12-29T08:54:04Z</time>
      </trkpt>
      <trkpt lat="48.38465" lon="2.71403">
        <ele>95</ele>
        <time>2015-12-29T08:54:12Z</time>
      </trkpt>
      <trkpt lat="48.38458" lon="2.71413">
        <ele>94</ele>
        <time>2015-12-29T08:54:18Z</time>
      </trkpt>
      <trkpt lat="48.38451" lon="2.71421">
        <ele>93</ele>
        <time>2015-12-29T08:54:27Z</time>
      </trkpt>
      <trkpt lat="48.3845" lon="2.71435">
        <ele>93</ele>
        <time>2015-12-29T08:54:38Z</time>
      </trkpt>
      <trkpt lat="48.38446" lon="2.71477">
        <ele>90</ele>
        <time>2015-12-29T08:55:08Z</time>
      </trkpt>
      <trkpt lat="48.38428" lon="2.71533">
        <ele>87</ele>
        <time>2015-12-29T08:55:37Z</time>
      </trkpt>
      <trkpt lat="48.38429" lon="2.71547">
        <ele>86</ele>
        <time>2015-12-29T08:55:47Z</time>
      </trkpt>
      <trkpt lat="48.38425" lon="2.71605">
        <ele>83</ele>
        <time>2015-12-29T08:56:22Z</time>
      </trkpt>
      <trkpt lat="48.38415" lon="2.7166">
        <ele>82</ele>
        <time>2015-12-29T08:56:53Z</time>
      </trkpt>
      <trkpt lat="48.38413" lon="2.71673">
        <ele>82</ele>
        <time>2015-12-29T08:57:02Z</time>
      </trkpt>
      <trkpt lat="48.38412" lon="2.7168">
        <ele>81</ele>
        <time>2015-12-29T08:57:06Z</time>
      </trkpt>
      <trkpt lat="48.38405" lon="2.71701">
        <ele>81</ele>
        <time>2015-12-29T08:57:17Z</time>
      </trkpt>
      <trkpt lat="48.38407" lon="2.71708">
        <ele>81</ele>
        <time>2015-12-29T08:57:21Z</time>
      </trkpt>
      <trkpt lat="48.38406" lon="2.71715">
        <ele>80</ele>
        <time>2015-12-29T08:57:26Z</time>
      </trkpt>
      <trkpt lat="48.38407" lon="2.71723">
        <ele>80</ele>
        <time>2015-12-29T08:57:33Z</time>
      </trkpt>
      <trkpt lat="48.38406" lon="2.71731">
        <ele>79</ele>
        <time>2015-12-29T08:57:38Z</time>
      </trkpt>
      <trkpt lat="48.38397" lon="2.71789">
        <ele>80</ele>
        <time>2015-12-29T08:58:10Z</time>
      </trkpt>
      <trkpt lat="48.38393" lon="2.71818">
        <ele>80</ele>
        <time>2015-12-29T08:58:28Z</time>
      </trkpt>
      <trkpt lat="48.38396" lon="2.71831">
        <ele>80</ele>
        <time>2015-12-29T08:58:39Z</time>
      </trkpt>
      <trkpt lat="48.38385" lon="2.71855">
        <ele>79</ele>
        <time>2015-12-29T08:58:52Z</time>
      </trkpt>
      <trkpt lat="48.38378" lon="2.7191">
        <ele>80</ele>
        <time>2015-12-29T08:59:25Z</time>
      </trkpt>
      <trkpt lat="48.38378" lon="2.71924">
        <ele>81</ele>
        <time>2015-12-29T08:59:35Z</time>
      </trkpt>
      <trkpt lat="48.38371" lon="2.71934">
        <ele>81</ele>
        <time>2015-12-29T08:59:46Z</time>
      </trkpt>
      <trkpt lat="48.38366" lon="2.71935">
        <ele>81</ele>
        <time>2015-12-29T08:59:49Z</time>
      </trkpt>
      <trkpt lat="48.38346" lon="2.71933">
        <ele>81</ele>
        <time>2015-12-29T09:00:09Z</time>
      </trkpt>
      <trkpt lat="48.38341" lon="2.71933">
        <ele>83</ele>
        <time>2015-12-29T09:00:18Z</time>
      </trkpt>
      <trkpt lat="48.38337" lon="2.71935">
        <ele>83</ele>
        <time>2015-12-29T09:00:23Z</time>
      </trkpt>
      <trkpt lat="48.38332" lon="2.71931">
        <ele>84</ele>
        <time>2015-12-29T09:00:27Z</time>
      </trkpt>
      <trkpt lat="48.38323" lon="2.71924">
        <ele>84</ele>
        <time>2015-12-29T09:00:34Z</time>
      </trkpt>
      <trkpt lat="48.38313" lon="2.71924">
        <ele>85</ele>
        <time>2015-12-29T09:00:42Z</time>
      </trkpt>
      <trkpt lat="48.38305" lon="2.71917">
        <ele>85</ele>
        <time>2015-12-29T09:00:51Z</time>
      </trkpt>
      <trkpt lat="48.383" lon="2.71904">
        <ele>87</ele>
        <time>2015-12-29T09:01:01Z</time>
      </trkpt>
      <trkpt lat="48.38298" lon="2.71891">
        <ele>87</ele>
        <time>2015-12-29T09:01:10Z</time>
      </trkpt>
      <trkpt lat="48.3829" lon="2.7188">
        <ele>89</ele>
        <time>2015-12-29T09:01:20Z</time>
      </trkpt>
      <trkpt lat="48.3828" lon="2.71878">
        <ele>89</ele>
        <time>2015-12-29T09:01:28Z</time>
      </trkpt>
      <trkpt lat="48.38265" lon="2.71881">
        <ele>92</ele>
        <time>2015-12-29T09:01:43Z</time>
      </trkpt>
      <trkpt lat="48.3826" lon="2.71885">
        <ele>92</ele>
        <time>2015-12-29T09:01:48Z</time>
      </trkpt>
      <trkpt lat="48.38255" lon="2.71884">
        <ele>93</ele>
        <time>2015-12-29T09:01:56Z</time>
      </trkpt>
      <trkpt lat="48.38245" lon="2.71888">
        <ele>93</ele>
        <time>2015-12-29T09:02:02Z</time>
      </trkpt>
      <trkpt lat="48.38241" lon="2.71886">
        <ele>93</ele>
        <time>2015-12-29T09:02:06Z</time>
      </trkpt>
      <trkpt lat="48.38237" lon="2.71883">
        <ele>94</ele>
        <time>2015-12-29T09:02:12Z</time>
      </trkpt>
      <trkpt lat="48.38233" lon="2.71879">
        <ele>94</ele>
        <time>2015-12-29T09:02:17Z</time>
      </trkpt>
      <trkpt lat="48.38229" lon="2.71875">
        <ele>95</ele>
        <time>2015-12-29T09:02:24Z</time>
      </trkpt>
      <trkpt lat="48.38226" lon="2.71869">
        <ele>95</ele>
        <time>2015-12-29T09:02:29Z</time>
      </trkpt>
      <trkpt lat="48.38222" lon="2.71861">
        <ele>95</ele>
        <time>2015-12-29T09:02:33Z</time>
      </trkpt>
      <trkpt lat="48.38218" lon="2.71854">
        <ele>95</ele>
        <time>2015-12-29T09:02:39Z</time>
      </trkpt>
      <trkpt lat="48.38208" lon="2.71847">
        <ele>94</ele>
        <time>2015-12-29T09:02:48Z</time>
      </trkpt>
      <trkpt lat="48.38203" lon="2.71846">
        <ele>94</ele>
        <time>2015-12-29T09:02:52Z</time>
      </trkpt>
      <trkpt lat="48.38197" lon="2.71845">
        <ele>94</ele>
        <time>2015-12-29T09:02:56Z</time>
      </trkpt>
      <trkpt lat="48.38189" lon="2.71839">
        <ele>95</ele>
        <time>2015-12-29T09:03:03Z</time>
      </trkpt>
      <trkpt lat="48.3818" lon="2.71831">
        <ele>94</ele>
        <time>2015-12-29T09:03:12Z</time>
      </trkpt>
      <trkpt lat="48.38166" lon="2.71825">
        <ele>94</ele>
        <time>2015-12-29T09:03:24Z</time>
      </trkpt>
      <trkpt lat="48.38152" lon="2.71818">
        <ele>93</ele>
        <time>2015-12-29T09:03:39Z</time>
      </trkpt>
      <trkpt lat="48.38143" lon="2.71814">
        <ele>93</ele>
        <time>2015-12-29T09:03:47Z</time>
      </trkpt>
      <trkpt lat="48.38133" lon="2.71807">
        <ele>94</ele>
        <time>2015-12-29T09:03:55Z</time>
      </trkpt>
      <trkpt lat="48.38128" lon="2.71809">
        <ele>94</ele>
        <time>2015-12-29T09:04:00Z</time>
      </trkpt>
      <trkpt lat="48.3812" lon="2.71803">
        <ele>94</ele>
        <time>2015-12-29T09:04:07Z</time>
      </trkpt>
      <trkpt lat="48.38114" lon="2.71803">
        <ele>93</ele>
        <time>2015-12-29T09:04:11Z</time>
      </trkpt>
      <trkpt lat="48.38112" lon="2.71795">
        <ele>93</ele>
        <time>2015-12-29T09:04:17Z</time>
      </trkpt>
      <trkpt lat="48.38113" lon="2.71787">
        <ele>93</ele>
        <time>2015-12-29T09:04:22Z</time>
      </trkpt>
      <trkpt lat="48.38113" lon="2.71758">
        <ele>93</ele>
        <time>2015-12-29T09:04:39Z</time>
      </trkpt>
      <trkpt lat="48.38118" lon="2.71746">
        <ele>94</ele>
        <time>2015-12-29T09:04:48Z</time>
      </trkpt>
      <trkpt lat="48.38122" lon="2.71724">
        <ele>93</ele>
        <time>2015-12-29T09:05:02Z</time>
      </trkpt>
      <trkpt lat="48.38133" lon="2.71671">
        <ele>94</ele>
        <time>2015-12-29T09:05:38Z</time>
      </trkpt>
      <trkpt lat="48.38137" lon="2.71628">
        <ele>94</ele>
        <time>2015-12-29T09:06:06Z</time>
      </trkpt>
      <trkpt lat="48.38137" lon="2.71613">
        <ele>94</ele>
        <time>2015-12-29T09:06:14Z</time>
      </trkpt>
      <trkpt lat="48.38143" lon="2.71571">
        <ele>95</ele>
        <time>2015-12-29T09:06:42Z</time>
      </trkpt>
      <trkpt lat="48.38143" lon="2.71556">
        <ele>95</ele>
        <time>2015-12-29T09:06:48Z</time>
      </trkpt>
      <trkpt lat="48.38147" lon="2.71543">
        <ele>95</ele>
        <time>2015-12-29T09:06:59Z</time>
      </trkpt>
      <trkpt lat="48.38155" lon="2.71486">
        <ele>96</ele>
        <time>2015-12-29T09:07:31Z</time>
      </trkpt>
      <trkpt lat="48.38165" lon="2.71447">
        <ele>97</ele>
        <time>2015-12-29T09:07:59Z</time>
      </trkpt>
      <trkpt lat="48.38173" lon="2.71439">
        <ele>98</ele>
        <time>2015-12-29T09:08:07Z</time>
      </trkpt>
      <trkpt lat="48.38176" lon="2.71426">
        <ele>98</ele>
        <time>2015-12-29T09:08:15Z</time>
      </trkpt>
      <trkpt lat="48.38187" lon="2.71387">
        <ele>101</ele>
        <time>2015-12-29T09:08:40Z</time>
      </trkpt>
      <trkpt lat="48.38186" lon="2.71373">
        <ele>101</ele>
        <time>2015-12-29T09:08:49Z</time>
      </trkpt>
      <trkpt lat="48.38188" lon="2.71358">
        <ele>101</ele>
        <time>2015-12-29T09:08:58Z</time>
      </trkpt>
      <trkpt lat="48.38191" lon="2.71345">
        <ele>101</ele>
        <time>2015-12-29T09:09:05Z</time>
      </trkpt>
      <trkpt lat="48.38195" lon="2.71329">
        <ele>102</ele>
        <time>2015-12-29T09:09:20Z</time>
      </trkpt>
      <trkpt lat="48.38204" lon="2.71305">
        <ele>102</ele>
        <time>2015-12-29T09:09:38Z</time>
      </trkpt>
      <trkpt lat="48.38205" lon="2.7129">
        <ele>103</ele>
        <time>2015-12-29T09:09:47Z</time>
      </trkpt>
      <trkpt lat="48.38207" lon="2.71275">
        <ele>103</ele>
        <time>2015-12-29T09:09:56Z</time>
      </trkpt>
      <trkpt lat="48.38207" lon="2.71268">
        <ele>104</ele>
        <time>2015-12-29T09:10:00Z</time>
      </trkpt>
      <trkpt lat="48.3821" lon="2.71261">
        <ele>105</ele>
        <time>2015-12-29T09:10:04Z</time>
      </trkpt>
      <trkpt lat="48.3821" lon="2.71254">
        <ele>104</ele>
        <time>2015-12-29T09:10:07Z</time>
      </trkpt>
      <trkpt lat="48.3821" lon="2.71246">
        <ele>105</ele>
        <time>2015-12-29T09:10:11Z</time>
      </trkpt>
      <trkpt lat="48.38218" lon="2.7121">
        <ele>108</ele>
        <time>2015-12-29T09:10:38Z</time>
      </trkpt>
      <trkpt lat="48.38218" lon="2.71203">
        <ele>108</ele>
        <time>2015-12-29T09:10:42Z</time>
      </trkpt>
      <trkpt lat="48.38218" lon="2.71196">
        <ele>108</ele>
        <time>2015-12-29T09:10:46Z</time>
      </trkpt>
      <trkpt lat="48.38227" lon="2.71155">
        <ele>108</ele>
        <time>2015-12-29T09:11:10Z</time>
      </trkpt>
      <trkpt lat="48.38228" lon="2.71141">
        <ele>108</ele>
        <time>2015-12-29T09:11:19Z</time>
      </trkpt>
      <trkpt lat="48.3823" lon="2.71126">
        <ele>111</ele>
        <time>2015-12-29T09:11:29Z</time>
      </trkpt>
      <trkpt lat="48.38228" lon="2.71067">
        <ele>110</ele>
        <time>2015-12-29T09:12:07Z</time>
      </trkpt>
      <trkpt lat="48.38229" lon="2.71051">
        <ele>110</ele>
        <time>2015-12-29T09:12:16Z</time>
      </trkpt>
      <trkpt lat="48.38227" lon="2.71044">
        <ele>110</ele>
        <time>2015-12-29T09:12:20Z</time>
      </trkpt>
      <trkpt lat="48.38227" lon="2.71037">
        <ele>110</ele>
        <time>2015-12-29T09:12:26Z</time>
      </trkpt>
      <trkpt lat="48.38226" lon="2.7103">
        <ele>110</ele>
        <time>2015-12-29T09:12:29Z</time>
      </trkpt>
      <trkpt lat="48.38226" lon="2.71023">
        <ele>109</ele>
        <time>2015-12-29T09:12:33Z</time>
      </trkpt>
      <trkpt lat="48.38226" lon="2.71016">
        <ele>109</ele>
        <time>2015-12-29T09:12:37Z</time>
      </trkpt>
      <trkpt lat="48.38223" lon="2.70984">
        <ele>113</ele>
        <time>2015-12-29T09:12:57Z</time>
      </trkpt>
      <trkpt lat="48.38222" lon="2.70969">
        <ele>113</ele>
        <time>2015-12-29T09:13:05Z</time>
      </trkpt>
      <trkpt lat="48.38223" lon="2.70919">
        <ele>108</ele>
        <time>2015-12-29T09:13:33Z</time>
      </trkpt>
      <trkpt lat="48.38223" lon="2.70912">
        <ele>108</ele>
        <time>2015-12-29T09:13:37Z</time>
      </trkpt>
      <trkpt lat="48.38221" lon="2.70905">
        <ele>108</ele>
        <time>2015-12-29T09:13:41Z</time>
      </trkpt>
      <trkpt lat="48.3822" lon="2.70897">
        <ele>106</ele>
        <time>2015-12-29T09:13:45Z</time>
      </trkpt>
      <trkpt lat="48.38225" lon="2.70884">
        <ele>106</ele>
        <time>2015-12-29T09:13:55Z</time>
      </trkpt>
      <trkpt lat="48.38225" lon="2.70869">
        <ele>106</ele>
        <time>2015-12-29T09:14:03Z</time>
      </trkpt>
      <trkpt lat="48.38225" lon="2.70862">
        <ele>107</ele>
        <time>2015-12-29T09:14:06Z</time>
      </trkpt>
      <trkpt lat="48.38227" lon="2.70843">
        <ele>108</ele>
        <time>2015-12-29T09:14:16Z</time>
      </trkpt>
      <trkpt lat="48.38226" lon="2.70836">
        <ele>109</ele>
        <time>2015-12-29T09:14:21Z</time>
      </trkpt>
      <trkpt lat="48.38227" lon="2.7082">
        <ele>108</ele>
        <time>2015-12-29T09:14:29Z</time>
      </trkpt>
      <trkpt lat="48.38228" lon="2.70814">
        <ele>107</ele>
        <time>2015-12-29T09:14:35Z</time>
      </trkpt>
      <trkpt lat="48.38228" lon="2.70806">
        <ele>107</ele>
        <time>2015-12-29T09:14:40Z</time>
      </trkpt>
      <trkpt lat="48.38225" lon="2.70798">
        <ele>107</ele>
        <time>2015-12-29T09:14:43Z</time>
      </trkpt>
      <trkpt lat="48.38221" lon="2.70794">
        <ele>107</ele>
        <time>2015-12-29T09:14:47Z</time>
      </trkpt>
      <trkpt lat="48.38224" lon="2.70788">
        <ele>107</ele>
        <time>2015-12-29T09:14:50Z</time>
      </trkpt>
      <trkpt lat="48.38227" lon="2.70783">
        <ele>107</ele>
        <time>2015-12-29T09:14:54Z</time>
      </trkpt>
      <trkpt lat="48.38229" lon="2.70776">
        <ele>107</ele>
        <time>2015-12-29T09:15:00Z</time>
      </trkpt>
      <trkpt lat="48.38231" lon="2.70759">
        <ele>107</ele>
        <time>2015-12-29T09:15:07Z</time>
      </trkpt>
      <trkpt lat="48.38229" lon="2.70749">
        <ele>107</ele>
        <time>2015-12-29T09:15:14Z</time>
      </trkpt>
      <trkpt lat="48.3823" lon="2.70742">
        <ele>105</ele>
        <time>2015-12-29T09:15:19Z</time>
      </trkpt>
      <trkpt lat="48.38233" lon="2.70721">
        <ele>104</ele>
        <time>2015-12-29T09:15:30Z</time>
      </trkpt>
      <trkpt lat="48.38232" lon="2.70703">
        <ele>105</ele>
        <time>2015-12-29T09:15:40Z</time>
      </trkpt>
      <trkpt lat="48.38234" lon="2.70695">
        <ele>104</ele>
        <time>2015-12-29T09:15:45Z</time>
      </trkpt>
      <trkpt lat="48.38236" lon="2.70688">
        <ele>105</ele>
        <time>2015-12-29T09:15:48Z</time>
      </trkpt>
      <trkpt lat="48.38235" lon="2.70659">
        <ele>107</ele>
        <time>2015-12-29T09:16:02Z</time>
      </trkpt>
      <trkpt lat="48.38237" lon="2.70651">
        <ele>107</ele>
        <time>2015-12-29T09:16:09Z</time>
      </trkpt>
      <trkpt lat="48.38242" lon="2.70621">
        <ele>105</ele>
        <time>2015-12-29T09:16:25Z</time>
      </trkpt>
      <trkpt lat="48.38241" lon="2.70614">
        <ele>105</ele>
        <time>2015-12-29T09:16:28Z</time>
      </trkpt>
      <trkpt lat="48.38242" lon="2.70598">
        <ele>106</ele>
        <time>2015-12-29T09:16:37Z</time>
      </trkpt>
      <trkpt lat="48.38243" lon="2.70591">
        <ele>106</ele>
        <time>2015-12-29T09:16:41Z</time>
      </trkpt>
      <trkpt lat="48.38249" lon="2.70563">
        <ele>103</ele>
        <time>2015-12-29T09:16:58Z</time>
      </trkpt>
      <trkpt lat="48.38249" lon="2.7054">
        <ele>104</ele>
        <time>2015-12-29T09:17:10Z</time>
      </trkpt>
      <trkpt lat="48.38252" lon="2.70533">
        <ele>104</ele>
        <time>2015-12-29T09:17:15Z</time>
      </trkpt>
      <trkpt lat="48.38253" lon="2.70526">
        <ele>104</ele>
        <time>2015-12-29T09:17:19Z</time>
      </trkpt>
      <trkpt lat="48.38254" lon="2.70511">
        <ele>103</ele>
        <time>2015-12-29T09:17:27Z</time>
      </trkpt>
      <trkpt lat="48.38258" lon="2.70507">
        <ele>104</ele>
        <time>2015-12-29T09:17:33Z</time>
      </trkpt>
      <trkpt lat="48.38258" lon="2.705">
        <ele>104</ele>
        <time>2015-12-29T09:17:37Z</time>
      </trkpt>
      <trkpt lat="48.38258" lon="2.70493">
        <ele>104</ele>
        <time>2015-12-29T09:17:40Z</time>
      </trkpt>
      <trkpt lat="48.38259" lon="2.70485">
        <ele>103</ele>
        <time>2015-12-29T09:17:45Z</time>
      </trkpt>
      <trkpt lat="48.38262" lon="2.70478">
        <ele>104</ele>
        <time>2015-12-29T09:17:51Z</time>
      </trkpt>
      <trkpt lat="48.3826" lon="2.70464">
        <ele>104</ele>
        <time>2015-12-29T09:18:00Z</time>
      </trkpt>
      <trkpt lat="48.3826" lon="2.70456">
        <ele>104</ele>
        <time>2015-12-29T09:18:04Z</time>
      </trkpt>
      <trkpt lat="48.38261" lon="2.70438">
        <ele>104</ele>
        <time>2015-12-29T09:18:12Z</time>
      </trkpt>
      <trkpt lat="48.38263" lon="2.70423">
        <ele>103</ele>
        <time>2015-12-29T09:18:19Z</time>
      </trkpt>
      <trkpt lat="48.38264" lon="2.70416">
        <ele>103</ele>
        <time>2015-12-29T09:18:25Z</time>
      </trkpt>
      <trkpt lat="48.38264" lon="2.70397">
        <ele>103</ele>
        <time>2015-12-29T09:18:33Z</time>
      </trkpt>
      <trkpt lat="48.38264" lon="2.70389">
        <ele>103</ele>
        <time>2015-12-29T09:18:37Z</time>
      </trkpt>
      <trkpt lat="48.38266" lon="2.70382">
        <ele>101</ele>
        <time>2015-12-29T09:18:42Z</time>
      </trkpt>
      <trkpt lat="48.38267" lon="2.70375">
        <ele>101</ele>
        <time>2015-12-29T09:18:45Z</time>
      </trkpt>
      <trkpt lat="48.38267" lon="2.70368">
        <ele>100</ele>
        <time>2015-12-29T09:18:49Z</time>
      </trkpt>
      <trkpt lat="48.38269" lon="2.70354">
        <ele>101</ele>
        <time>2015-12-29T09:18:57Z</time>
      </trkpt>
      <trkpt lat="48.38272" lon="2.70341">
        <ele>100</ele>
        <time>2015-12-29T09:19:05Z</time>
      </trkpt>
      <trkpt lat="48.38273" lon="2.70334">
        <ele>99</ele>
        <time>2015-12-29T09:19:09Z</time>
      </trkpt>
      <trkpt lat="48.38273" lon="2.70326">
        <ele>99</ele>
        <time>2015-12-29T09:19:13Z</time>
      </trkpt>
      <trkpt lat="48.38275" lon="2.70319">
        <ele>99</ele>
        <time>2015-12-29T09:19:17Z</time>
      </trkpt>
      <trkpt lat="48.38276" lon="2.70311">
        <ele>98</ele>
        <time>2015-12-29T09:19:22Z</time>
      </trkpt>
      <trkpt lat="48.38271" lon="2.70299">
        <ele>97</ele>
        <time>2015-12-29T09:19:25Z</time>
      </trkpt>
      <trkpt lat="48.38271" lon="2.70292">
        <ele>96</ele>
        <time>2015-12-29T09:19:29Z</time>
      </trkpt>
      <trkpt lat="48.38273" lon="2.70285">
        <ele>96</ele>
        <time>2015-12-29T09:19:34Z</time>
      </trkpt>
      <trkpt lat="48.38274" lon="2.70277">
        <ele>96</ele>
        <time>2015-12-29T09:19:38Z</time>
      </trkpt>
      <trkpt lat="48.38275" lon="2.7027">
        <ele>97</ele>
        <time>2015-12-29T09:19:42Z</time>
      </trkpt>
      <trkpt lat="48.38279" lon="2.70266">
        <ele>98</ele>
        <time>2015-12-29T09:19:46Z</time>
      </trkpt>
      <trkpt lat="48.38281" lon="2.70259">
        <ele>99</ele>
        <time>2015-12-29T09:19:51Z</time>
      </trkpt>
      <trkpt lat="48.38278" lon="2.70236">
        <ele>100</ele>
        <time>2015-12-29T09:20:03Z</time>
      </trkpt>
      <trkpt lat="48.38279" lon="2.7022">
        <ele>98</ele>
        <time>2015-12-29T09:20:11Z</time>
      </trkpt>
      <trkpt lat="48.3828" lon="2.70217">
        <ele>98</ele>
        <time>2015-12-29T09:20:12Z</time>
      </trkpt>
      <trkpt lat="48.38282" lon="2.70206">
        <ele>99</ele>
        <time>2015-12-29T09:20:19Z</time>
      </trkpt>
      <trkpt lat="48.38281" lon="2.7019">
        <ele>99</ele>
        <time>2015-12-29T09:20:30Z</time>
      </trkpt>
      <trkpt lat="48.38278" lon="2.70182">
        <ele>99</ele>
        <time>2015-12-29T09:20:33Z</time>
      </trkpt>
      <trkpt lat="48.38276" lon="2.70172">
        <ele>98</ele>
        <time>2015-12-29T09:20:40Z</time>
      </trkpt>
      <trkpt lat="48.38279" lon="2.70165">
        <ele>98</ele>
        <time>2015-12-29T09:20:44Z</time>
      </trkpt>
      <trkpt lat="48.38292" lon="2.70138">
        <ele>95</ele>
        <time>2015-12-29T09:21:00Z</time>
      </trkpt>
      <trkpt lat="48.38296" lon="2.70131">
        <ele>95</ele>
        <time>2015-12-29T09:21:05Z</time>
      </trkpt>
      <trkpt lat="48.38296" lon="2.70116">
        <ele>95</ele>
        <time>2015-12-29T09:21:12Z</time>
      </trkpt>
      <trkpt lat="48.38297" lon="2.70101">
        <ele>96</ele>
        <time>2015-12-29T09:21:21Z</time>
      </trkpt>
      <trkpt lat="48.38299" lon="2.70083">
        <ele>96</ele>
        <time>2015-12-29T09:21:29Z</time>
      </trkpt>
      <trkpt lat="48.38296" lon="2.70057">
        <ele>97</ele>
        <time>2015-12-29T09:21:45Z</time>
      </trkpt>
      <trkpt lat="48.38297" lon="2.70049">
        <ele>97</ele>
        <time>2015-12-29T09:21:51Z</time>
      </trkpt>
      <trkpt lat="48.38299" lon="2.70017">
        <ele>94</ele>
        <time>2015-12-29T09:22:08Z</time>
      </trkpt>
      <trkpt lat="48.38304" lon="2.69988">
        <ele>95</ele>
        <time>2015-12-29T09:22:23Z</time>
      </trkpt>
      <trkpt lat="48.38306" lon="2.69978">
        <ele>95</ele>
        <time>2015-12-29T09:22:29Z</time>
      </trkpt>
      <trkpt lat="48.38314" lon="2.69951">
        <ele>92</ele>
        <time>2015-12-29T09:22:45Z</time>
      </trkpt>
      <trkpt lat="48.38314" lon="2.69944">
        <ele>92</ele>
        <time>2015-12-29T09:22:49Z</time>
      </trkpt>
      <trkpt lat="48.38316" lon="2.69937">
        <ele>92</ele>
        <time>2015-12-29T09:22:53Z</time>
      </trkpt>
      <trkpt lat="48.38315" lon="2.69915">
        <ele>93</ele>
        <time>2015-12-29T09:23:02Z</time>
      </trkpt>
      <trkpt lat="48.38316" lon="2.69898">
        <ele>92</ele>
        <time>2015-12-29T09:23:10Z</time>
      </trkpt>
      <trkpt lat="48.38318" lon="2.69891">
        <ele>93</ele>
        <time>2015-12-29T09:23:15Z</time>
      </trkpt>
      <trkpt lat="48.38317" lon="2.69884">
        <ele>93</ele>
        <time>2015-12-29T09:23:18Z</time>
      </trkpt>
      <trkpt lat="48.38318" lon="2.69877">
        <ele>94</ele>
        <time>2015-12-29T09:23:23Z</time>
      </trkpt>
      <trkpt lat="48.38319" lon="2.6987">
        <ele>94</ele>
        <time>2015-12-29T09:23:27Z</time>
      </trkpt>
      <trkpt lat="48.38317" lon="2.69861">
        <ele>94</ele>
        <time>2015-12-29T09:23:31Z</time>
      </trkpt>
      <trkpt lat="48.38321" lon="2.69831">
        <ele>92</ele>
        <time>2015-12-29T09:23:49Z</time>
      </trkpt>
      <trkpt lat="48.38324" lon="2.69791">
        <ele>87</ele>
        <time>2015-12-29T09:24:10Z</time>
      </trkpt>
      <trkpt lat="48.38327" lon="2.69789">
        <ele>86</ele>
        <time>2015-12-29T09:24:21Z</time>
      </trkpt>
      <trkpt lat="48.38332" lon="2.69783">
        <ele>87</ele>
        <time>2015-12-29T09:24:28Z</time>
      </trkpt>
      <trkpt lat="48.38337" lon="2.69784">
        <ele>87</ele>
        <time>2015-12-29T09:24:35Z</time>
      </trkpt>
      <trkpt lat="48.38342" lon="2.69786">
        <ele>88</ele>
        <time>2015-12-29T09:24:40Z</time>
      </trkpt>
      <trkpt lat="48.3835" lon="2.69782">
        <ele>88</ele>
        <time>2015-12-29T09:24:53Z</time>
      </trkpt>
      <trkpt lat="48.38349" lon="2.6979">
        <ele>88</ele>
        <time>2015-12-29T09:24:58Z</time>
      </trkpt>
      <trkpt lat="48.38349" lon="2.69798">
        <ele>88</ele>
        <time>2015-12-29T09:25:03Z</time>
      </trkpt>
      <trkpt lat="48.38348" lon="2.69813">
        <ele>87</ele>
        <time>2015-12-29T09:25:13Z</time>
      </trkpt>
      <trkpt lat="48.38351" lon="2.69818">
        <ele>86</ele>
        <time>2015-12-29T09:25:21Z</time>
      </trkpt>
      <trkpt lat="48.38348" lon="2.69836">
        <ele>87</ele>
        <time>2015-12-29T09:25:43Z</time>
      </trkpt>
      <trkpt lat="48.38345" lon="2.69859">
        <ele>93</ele>
        <time>2015-12-29T09:26:21Z</time>
      </trkpt>
      <trkpt lat="48.38351" lon="2.69854">
        <ele>93</ele>
        <time>2015-12-29T09:27:30Z</time>
      </trkpt>
      <trkpt lat="48.38347" lon="2.69853">
        <ele>94</ele>
        <time>2015-12-29T09:29:42Z</time>
      </trkpt>
      <trkpt lat="48.38344" lon="2.69866">
        <ele>95</ele>
        <time>2015-12-29T09:30:06Z</time>
      </trkpt>
      <trkpt lat="48.38346" lon="2.6988">
        <ele>96</ele>
        <time>2015-12-29T09:30:13Z</time>
      </trkpt>
      <trkpt lat="48.38351" lon="2.69891">
        <ele>95</ele>
        <time>2015-12-29T09:30:20Z</time>
      </trkpt>
      <trkpt lat="48.38353" lon="2.69888">
        <ele>95</ele>
        <time>2015-12-29T09:31:36Z</time>
      </trkpt>
      <trkpt lat="48.3835" lon="2.69883">
        <ele>96</ele>
        <time>2015-12-29T09:32:00Z</time>
      </trkpt>
      <trkpt lat="48.38346" lon="2.69878">
        <ele>96</ele>
        <time>2015-12-29T09:32:05Z</time>
      </trkpt>
      <trkpt lat="48.38346" lon="2.69871">
        <ele>97</ele>
        <time>2015-12-29T09:32:09Z</time>
      </trkpt>
      <trkpt lat="48.38343" lon="2.69866">
        <ele>98</ele>
        <time>2015-12-29T09:32:19Z</time>
      </trkpt>
      <trkpt lat="48.3834" lon="2.6986">
        <ele>98</ele>
        <time>2015-12-29T09:32:23Z</time>
      </trkpt>
      <trkpt lat="48.38343" lon="2.69853">
        <ele>97</ele>
        <time>2015-12-29T09:32:28Z</time>
      </trkpt>
      <trkpt lat="48.38349" lon="2.69849">
        <ele>97</ele>
        <time>2015-12-29T09:32:34Z</time>
      </trkpt>
      <trkpt lat="48.38349" lon="2.69855">
        <ele>97</ele>
        <time>2015-12-29T09:32:44Z</time>
      </trkpt>
      <trkpt lat="48.38346" lon="2.69855">
        <ele>97</ele>
        <time>2015-12-29T09:33:00Z</time>
      </trkpt>
      <trkpt lat="48.38347" lon="2.69848">
        <ele>97</ele>
        <time>2015-12-29T09:33:06Z</time>
      </trkpt>
      <trkpt lat="48.38354" lon="2.69838">
        <ele>96</ele>
        <time>2015-12-29T09:33:19Z</time>
      </trkpt>
      <trkpt lat="48.38359" lon="2.69836">
        <ele>96</ele>
        <time>2015-12-29T09:33:24Z</time>
      </trkpt>
      <trkpt lat="48.38364" lon="2.69823">
        <ele>92</ele>
        <time>2015-12-29T09:33:35Z</time>
      </trkpt>
      <trkpt lat="48.38369" lon="2.69817">
        <ele>92</ele>
        <time>2015-12-29T09:33:42Z</time>
      </trkpt>
      <trkpt lat="48.38369" lon="2.69811">
        <ele>91</ele>
        <time>2015-12-29T09:33:47Z</time>
      </trkpt>
      <trkpt lat="48.38371" lon="2.69803">
        <ele>91</ele>
        <time>2015-12-29T09:33:55Z</time>
      </trkpt>
      <trkpt lat="48.38372" lon="2.69766">
        <ele>95</ele>
        <time>2015-12-29T09:34:17Z</time>
      </trkpt>
      <trkpt lat="48.38377" lon="2.69753">
        <ele>94</ele>
        <time>2015-12-29T09:34:27Z</time>
      </trkpt>
      <trkpt lat="48.38378" lon="2.69746">
        <ele>94</ele>
        <time>2015-12-29T09:34:31Z</time>
      </trkpt>
      <trkpt lat="48.38379" lon="2.69737">
        <ele>95</ele>
        <time>2015-12-29T09:34:36Z</time>
      </trkpt>
      <trkpt lat="48.38381" lon="2.69729">
        <ele>95</ele>
        <time>2015-12-29T09:34:41Z</time>
      </trkpt>
      <trkpt lat="48.38384" lon="2.69715">
        <ele>93</ele>
        <time>2015-12-29T09:34:51Z</time>
      </trkpt>
      <trkpt lat="48.38385" lon="2.69708">
        <ele>93</ele>
        <time>2015-12-29T09:34:55Z</time>
      </trkpt>
      <trkpt lat="48.38385" lon="2.69701">
        <ele>93</ele>
        <time>2015-12-29T09:35:00Z</time>
      </trkpt>
      <trkpt lat="48.38388" lon="2.69694">
        <ele>93</ele>
        <time>2015-12-29T09:35:06Z</time>
      </trkpt>
      <trkpt lat="48.38389" lon="2.69686">
        <ele>92</ele>
        <time>2015-12-29T09:35:11Z</time>
      </trkpt>
      <trkpt lat="48.38391" lon="2.69672">
        <ele>93</ele>
        <time>2015-12-29T09:35:22Z</time>
      </trkpt>
      <trkpt lat="48.3839" lon="2.69664">
        <ele>93</ele>
        <time>2015-12-29T09:35:27Z</time>
      </trkpt>
      <trkpt lat="48.38392" lon="2.69657">
        <ele>92</ele>
        <time>2015-12-29T09:35:34Z</time>
      </trkpt>
      <trkpt lat="48.38393" lon="2.69649">
        <ele>92</ele>
        <time>2015-12-29T09:35:39Z</time>
      </trkpt>
      <trkpt lat="48.38394" lon="2.69633">
        <ele>92</ele>
        <time>2015-12-29T09:35:48Z</time>
      </trkpt>
      <trkpt lat="48.38398" lon="2.69612">
        <ele>90</ele>
        <time>2015-12-29T09:36:01Z</time>
      </trkpt>
      <trkpt lat="48.38396" lon="2.69597">
        <ele>90</ele>
        <time>2015-12-29T09:36:11Z</time>
      </trkpt>
      <trkpt lat="48.38396" lon="2.6959">
        <ele>90</ele>
        <time>2015-12-29T09:36:15Z</time>
      </trkpt>
      <trkpt lat="48.384" lon="2.69575">
        <ele>91</ele>
        <time>2015-12-29T09:36:26Z</time>
      </trkpt>
      <trkpt lat="48.38402" lon="2.69568">
        <ele>91</ele>
        <time>2015-12-29T09:36:30Z</time>
      </trkpt>
      <trkpt lat="48.38405" lon="2.69547">
        <ele>91</ele>
        <time>2015-12-29T09:36:44Z</time>
      </trkpt>
      <trkpt lat="48.38406" lon="2.6954">
        <ele>90</ele>
        <time>2015-12-29T09:36:49Z</time>
      </trkpt>
      <trkpt lat="48.38407" lon="2.69533">
        <ele>90</ele>
        <time>2015-12-29T09:36:54Z</time>
      </trkpt>
      <trkpt lat="48.38407" lon="2.69517">
        <ele>90</ele>
        <time>2015-12-29T09:37:02Z</time>
      </trkpt>
      <trkpt lat="48.38405" lon="2.69501">
        <ele>90</ele>
        <time>2015-12-29T09:37:12Z</time>
      </trkpt>
      <trkpt lat="48.38406" lon="2.69472">
        <ele>88</ele>
        <time>2015-12-29T09:37:31Z</time>
      </trkpt>
      <trkpt lat="48.38407" lon="2.69466">
        <ele>88</ele>
        <time>2015-12-29T09:37:35Z</time>
      </trkpt>
      <trkpt lat="48.38409" lon="2.69444">
        <ele>89</ele>
        <time>2015-12-29T09:37:50Z</time>
      </trkpt>
      <trkpt lat="48.38412" lon="2.69429">
        <ele>88</ele>
        <time>2015-12-29T09:38:02Z</time>
      </trkpt>
      <trkpt lat="48.38412" lon="2.69422">
        <ele>89</ele>
        <time>2015-12-29T09:38:06Z</time>
      </trkpt>
      <trkpt lat="48.38413" lon="2.69415">
        <ele>88</ele>
        <time>2015-12-29T09:38:11Z</time>
      </trkpt>
      <trkpt lat="48.38419" lon="2.69403">
        <ele>87</ele>
        <time>2015-12-29T09:38:22Z</time>
      </trkpt>
      <trkpt lat="48.38418" lon="2.69395">
        <ele>87</ele>
        <time>2015-12-29T09:38:27Z</time>
      </trkpt>
      <trkpt lat="48.3841" lon="2.6936">
        <ele>88</ele>
        <time>2015-12-29T09:38:46Z</time>
      </trkpt>
      <trkpt lat="48.38409" lon="2.69353">
        <ele>89</ele>
        <time>2015-12-29T09:38:50Z</time>
      </trkpt>
      <trkpt lat="48.38407" lon="2.69346">
        <ele>89</ele>
        <time>2015-12-29T09:38:54Z</time>
      </trkpt>
      <trkpt lat="48.38406" lon="2.69338">
        <ele>90</ele>
        <time>2015-12-29T09:38:59Z</time>
      </trkpt>
      <trkpt lat="48.38408" lon="2.69331">
        <ele>90</ele>
        <time>2015-12-29T09:39:05Z</time>
      </trkpt>
      <trkpt lat="48.38409" lon="2.69323">
        <ele>91</ele>
        <time>2015-12-29T09:39:09Z</time>
      </trkpt>
      <trkpt lat="48.38414" lon="2.69311">
        <ele>91</ele>
        <time>2015-12-29T09:39:16Z</time>
      </trkpt>
      <trkpt lat="48.38419" lon="2.69298">
        <ele>90</ele>
        <time>2015-12-29T09:39:26Z</time>
      </trkpt>
      <trkpt lat="48.3842" lon="2.69291">
        <ele>90</ele>
        <time>2015-12-29T09:39:30Z</time>
      </trkpt>
      <trkpt lat="48.3842" lon="2.69269">
        <ele>92</ele>
        <time>2015-12-29T09:39:43Z</time>
      </trkpt>
      <trkpt lat="48.38423" lon="2.69262">
        <ele>92</ele>
        <time>2015-12-29T09:39:48Z</time>
      </trkpt>
      <trkpt lat="48.38426" lon="2.69257">
        <ele>91</ele>
        <time>2015-12-29T09:39:53Z</time>
      </trkpt>
      <trkpt lat="48.3843" lon="2.69243">
        <ele>91</ele>
        <time>2015-12-29T09:40:03Z</time>
      </trkpt>
      <trkpt lat="48.38432" lon="2.69235">
        <ele>91</ele>
        <time>2015-12-29T09:40:07Z</time>
      </trkpt>
      <trkpt lat="48.38435" lon="2.69231">
        <ele>91</ele>
        <time>2015-12-29T09:40:12Z</time>
      </trkpt>
      <trkpt lat="48.38444" lon="2.69212">
        <ele>92</ele>
        <time>2015-12-29T09:40:25Z</time>
      </trkpt>
      <trkpt lat="48.38449" lon="2.69212">
        <ele>93</ele>
        <time>2015-12-29T09:40:31Z</time>
      </trkpt>
      <trkpt lat="48.38453" lon="2.69208">
        <ele>93</ele>
        <time>2015-12-29T09:40:40Z</time>
      </trkpt>
      <trkpt lat="48.38488" lon="2.69196">
        <ele>91</ele>
        <time>2015-12-29T09:41:12Z</time>
      </trkpt>
      <trkpt lat="48.38512" lon="2.69204">
        <ele>88</ele>
        <time>2015-12-29T09:41:31Z</time>
      </trkpt>
      <trkpt lat="48.38517" lon="2.69205">
        <ele>88</ele>
        <time>2015-12-29T09:41:35Z</time>
      </trkpt>
      <trkpt lat="48.38521" lon="2.69209">
        <ele>88</ele>
        <time>2015-12-29T09:41:40Z</time>
      </trkpt>
      <trkpt lat="48.38526" lon="2.69211">
        <ele>89</ele>
        <time>2015-12-29T09:41:48Z</time>
      </trkpt>
      <trkpt lat="48.38536" lon="2.69216">
        <ele>89</ele>
        <time>2015-12-29T09:41:56Z</time>
      </trkpt>
      <trkpt lat="48.3854" lon="2.69221">
        <ele>88</ele>
        <time>2015-12-29T09:41:59Z</time>
      </trkpt>
      <trkpt lat="48.38563" lon="2.69232">
        <ele>83</ele>
        <time>2015-12-29T09:42:25Z</time>
      </trkpt>
      <trkpt lat="48.38571" lon="2.69229">
        <ele>83</ele>
        <time>2015-12-29T09:42:32Z</time>
      </trkpt>
      <trkpt lat="48.3858" lon="2.69226">
        <ele>83</ele>
        <time>2015-12-29T09:42:38Z</time>
      </trkpt>
      <trkpt lat="48.38588" lon="2.6922">
        <ele>83</ele>
        <time>2015-12-29T09:42:48Z</time>
      </trkpt>
      <trkpt lat="48.3861" lon="2.69217">
        <ele>83</ele>
        <time>2015-12-29T09:43:08Z</time>
      </trkpt>
      <trkpt lat="48.38646" lon="2.69218">
        <ele>77</ele>
        <time>2015-12-29T09:43:41Z</time>
      </trkpt>
      <trkpt lat="48.3866" lon="2.69216">
        <ele>74</ele>
        <time>2015-12-29T09:43:56Z</time>
      </trkpt>
      <trkpt lat="48.38665" lon="2.6922">
        <ele>74</ele>
        <time>2015-12-29T09:44:00Z</time>
      </trkpt>
      <trkpt lat="48.38667" lon="2.69227">
        <ele>74</ele>
        <time>2015-12-29T09:44:05Z</time>
      </trkpt>
      <trkpt lat="48.38668" lon="2.69236">
        <ele>74</ele>
        <time>2015-12-29T09:44:10Z</time>
      </trkpt>
      <trkpt lat="48.38672" lon="2.69248">
        <ele>76</ele>
        <time>2015-12-29T09:44:20Z</time>
      </trkpt>
      <trkpt lat="48.38669" lon="2.69255">
        <ele>76</ele>
        <time>2015-12-29T09:44:24Z</time>
      </trkpt>
      <trkpt lat="48.38669" lon="2.69262">
        <ele>77</ele>
        <time>2015-12-29T09:44:29Z</time>
      </trkpt>
      <trkpt lat="48.3867" lon="2.69269">
        <ele>78</ele>
        <time>2015-12-29T09:44:34Z</time>
      </trkpt>
      <trkpt lat="48.38671" lon="2.69276">
        <ele>78</ele>
        <time>2015-12-29T09:44:40Z</time>
      </trkpt>
      <trkpt lat="48.3867" lon="2.69298">
        <ele>77</ele>
        <time>2015-12-29T09:44:52Z</time>
      </trkpt>
      <trkpt lat="48.38669" lon="2.69306">
        <ele>77</ele>
        <time>2015-12-29T09:44:56Z</time>
      </trkpt>
      <trkpt lat="48.38666" lon="2.6936">
        <ele>75</ele>
        <time>2015-12-29T09:45:24Z</time>
      </trkpt>
      <trkpt lat="48.38664" lon="2.69374">
        <ele>76</ele>
        <time>2015-12-29T09:45:31Z</time>
      </trkpt>
      <trkpt lat="48.38663" lon="2.69389">
        <ele>75</ele>
        <time>2015-12-29T09:45:43Z</time>
      </trkpt>
      <trkpt lat="48.38663" lon="2.69422">
        <ele>74</ele>
        <time>2015-12-29T09:46:02Z</time>
      </trkpt>
      <trkpt lat="48.38661" lon="2.6943">
        <ele>73</ele>
        <time>2015-12-29T09:46:06Z</time>
      </trkpt>
      <trkpt lat="48.38661" lon="2.69437">
        <ele>73</ele>
        <time>2015-12-29T09:46:10Z</time>
      </trkpt>
      <trkpt lat="48.38659" lon="2.69451">
        <ele>73</ele>
        <time>2015-12-29T09:46:18Z</time>
      </trkpt>
      <trkpt lat="48.38658" lon="2.69465">
        <ele>72</ele>
        <time>2015-12-29T09:46:31Z</time>
      </trkpt>
      <trkpt lat="48.3866" lon="2.6948">
        <ele>72</ele>
        <time>2015-12-29T09:46:42Z</time>
      </trkpt>
      <trkpt lat="48.38659" lon="2.69504">
        <ele>72</ele>
        <time>2015-12-29T09:46:54Z</time>
      </trkpt>
      <trkpt lat="48.38661" lon="2.6951">
        <ele>71</ele>
        <time>2015-12-29T09:46:58Z</time>
      </trkpt>
      <trkpt lat="48.38658" lon="2.69567">
        <ele>67</ele>
        <time>2015-12-29T09:47:29Z</time>
      </trkpt>
      <trkpt lat="48.38658" lon="2.69589">
        <ele>67</ele>
        <time>2015-12-29T09:47:44Z</time>
      </trkpt>
      <trkpt lat="48.38652" lon="2.696">
        <ele>68</ele>
        <time>2015-12-29T09:47:52Z</time>
      </trkpt>
      <trkpt lat="48.38652" lon="2.69609">
        <ele>68</ele>
        <time>2015-12-29T09:47:55Z</time>
      </trkpt>
      <trkpt lat="48.38654" lon="2.69641">
        <ele>71</ele>
        <time>2015-12-29T09:48:18Z</time>
      </trkpt>
      <trkpt lat="48.38655" lon="2.6966">
        <ele>72</ele>
        <time>2015-12-29T09:48:27Z</time>
      </trkpt>
      <trkpt lat="48.38657" lon="2.69692">
        <ele>73</ele>
        <time>2015-12-29T09:48:43Z</time>
      </trkpt>
      <trkpt lat="48.38656" lon="2.697">
        <ele>73</ele>
        <time>2015-12-29T09:48:48Z</time>
      </trkpt>
      <trkpt lat="48.38657" lon="2.69707">
        <ele>73</ele>
        <time>2015-12-29T09:48:53Z</time>
      </trkpt>
      <trkpt lat="48.38657" lon="2.69722">
        <ele>73</ele>
        <time>2015-12-29T09:49:04Z</time>
      </trkpt>
      <trkpt lat="48.38652" lon="2.69751">
        <ele>76</ele>
        <time>2015-12-29T09:49:25Z</time>
      </trkpt>
      <trkpt lat="48.38651" lon="2.69759">
        <ele>76</ele>
        <time>2015-12-29T09:49:29Z</time>
      </trkpt>
      <trkpt lat="48.3865" lon="2.69765">
        <ele>76</ele>
        <time>2015-12-29T09:49:32Z</time>
      </trkpt>
      <trkpt lat="48.38651" lon="2.69781">
        <ele>75</ele>
        <time>2015-12-29T09:49:42Z</time>
      </trkpt>
      <trkpt lat="48.38651" lon="2.69789">
        <ele>75</ele>
        <time>2015-12-29T09:49:47Z</time>
      </trkpt>
      <trkpt lat="48.3865" lon="2.69796">
        <ele>75</ele>
        <time>2015-12-29T09:49:52Z</time>
      </trkpt>
      <trkpt lat="48.3865" lon="2.6982">
        <ele>77</ele>
        <time>2015-12-29T09:50:04Z</time>
      </trkpt>
      <trkpt lat="48.38649" lon="2.69828">
        <ele>77</ele>
        <time>2015-12-29T09:50:08Z</time>
      </trkpt>
      <trkpt lat="48.38653" lon="2.69852">
        <ele>81</ele>
        <time>2015-12-29T09:50:27Z</time>
      </trkpt>
      <trkpt lat="48.38652" lon="2.69859">
        <ele>81</ele>
        <time>2015-12-29T09:50:33Z</time>
      </trkpt>
      <trkpt lat="48.38649" lon="2.69881">
        <ele>81</ele>
        <time>2015-12-29T09:50:48Z</time>
      </trkpt>
      <trkpt lat="48.38647" lon="2.69888">
        <ele>81</ele>
        <time>2015-12-29T09:50:53Z</time>
      </trkpt>
      <trkpt lat="48.38644" lon="2.69893">
        <ele>81</ele>
        <time>2015-12-29T09:50:57Z</time>
      </trkpt>
      <trkpt lat="48.3864" lon="2.69925">
        <ele>80</ele>
        <time>2015-12-29T09:51:14Z</time>
      </trkpt>
      <trkpt lat="48.38639" lon="2.6994">
        <ele>81</ele>
        <time>2015-12-29T09:51:23Z</time>
      </trkpt>
      <trkpt lat="48.38637" lon="2.69947">
        <ele>82</ele>
        <time>2015-12-29T09:51:28Z</time>
      </trkpt>
      <trkpt lat="48.38627" lon="2.69995">
        <ele>84</ele>
        <time>2015-12-29T09:52:01Z</time>
      </trkpt>
      <trkpt lat="48.38627" lon="2.70027">
        <ele>83</ele>
        <time>2015-12-29T09:52:19Z</time>
      </trkpt>
      <trkpt lat="48.38625" lon="2.70056">
        <ele>84</ele>
        <time>2015-12-29T09:52:37Z</time>
      </trkpt>
      <trkpt lat="48.38624" lon="2.70064">
        <ele>85</ele>
        <time>2015-12-29T09:52:42Z</time>
      </trkpt>
      <trkpt lat="48.38621" lon="2.7007">
        <ele>85</ele>
        <time>2015-12-29T09:52:46Z</time>
      </trkpt>
      <trkpt lat="48.38615" lon="2.70087">
        <ele>87</ele>
        <time>2015-12-29T09:53:08Z</time>
      </trkpt>
      <trkpt lat="48.38615" lon="2.70095">
        <ele>87</ele>
        <time>2015-12-29T09:53:17Z</time>
      </trkpt>
      <trkpt lat="48.38615" lon="2.70099">
        <ele>88</ele>
        <time>2015-12-29T09:53:39Z</time>
      </trkpt>
      <trkpt lat="48.38614" lon="2.70102">
        <ele>89</ele>
        <time>2015-12-29T09:53:45Z</time>
      </trkpt>
      <trkpt lat="48.38612" lon="2.70109">
        <ele>89</ele>
        <time>2015-12-29T09:53:53Z</time>
      </trkpt>
      <trkpt lat="48.38613" lon="2.70115">
        <ele>90</ele>
        <time>2015-12-29T09:53:59Z</time>
      </trkpt>
      <trkpt lat="48.38614" lon="2.70123">
        <ele>90</ele>
        <time>2015-12-29T09:54:05Z</time>
      </trkpt>
      <trkpt lat="48.38608" lon="2.70134">
        <ele>90</ele>
        <time>2015-12-29T09:54:16Z</time>
      </trkpt>
      <trkpt lat="48.38599" lon="2.70139">
        <ele>91</ele>
        <time>2015-12-29T09:54:25Z</time>
      </trkpt>
      <trkpt lat="48.3859" lon="2.70138">
        <ele>91</ele>
        <time>2015-12-29T09:54:35Z</time>
      </trkpt>
      <trkpt lat="48.38585" lon="2.7014">
        <ele>90</ele>
        <time>2015-12-29T09:54:47Z</time>
      </trkpt>
      <trkpt lat="48.38592" lon="2.70139">
        <ele>91</ele>
        <time>2015-12-29T09:56:54Z</time>
      </trkpt>
      <trkpt lat="48.38605" lon="2.70134">
        <ele>91</ele>
        <time>2015-12-29T09:57:16Z</time>
      </trkpt>
      <trkpt lat="48.38609" lon="2.70141">
        <ele>92</ele>
        <time>2015-12-29T09:57:30Z</time>
      </trkpt>
      <trkpt lat="48.38608" lon="2.70158">
        <ele>92</ele>
        <time>2015-12-29T09:58:00Z</time>
      </trkpt>
      <trkpt lat="48.38605" lon="2.70171">
        <ele>94</ele>
        <time>2015-12-29T09:58:10Z</time>
      </trkpt>
      <trkpt lat="48.38598" lon="2.70208">
        <ele>95</ele>
        <time>2015-12-29T09:58:40Z</time>
      </trkpt>
      <trkpt lat="48.38598" lon="2.70215">
        <ele>95</ele>
        <time>2015-12-29T09:58:45Z</time>
      </trkpt>
      <trkpt lat="48.38595" lon="2.70237">
        <ele>97</ele>
        <time>2015-12-29T09:59:04Z</time>
      </trkpt>
      <trkpt lat="48.38592" lon="2.70252">
        <ele>97</ele>
        <time>2015-12-29T09:59:17Z</time>
      </trkpt>
      <trkpt lat="48.38595" lon="2.70258">
        <ele>97</ele>
        <time>2015-12-29T09:59:22Z</time>
      </trkpt>
      <trkpt lat="48.38594" lon="2.70282">
        <ele>98</ele>
        <time>2015-12-29T09:59:35Z</time>
      </trkpt>
      <trkpt lat="48.38593" lon="2.7029">
        <ele>98</ele>
        <time>2015-12-29T09:59:39Z</time>
      </trkpt>
      <trkpt lat="48.3859" lon="2.70303">
        <ele>98</ele>
        <time>2015-12-29T09:59:48Z</time>
      </trkpt>
      <trkpt lat="48.38589" lon="2.70311">
        <ele>98</ele>
        <time>2015-12-29T09:59:53Z</time>
      </trkpt>
      <trkpt lat="48.38589" lon="2.70316">
        <ele>99</ele>
        <time>2015-12-29T10:00:01Z</time>
      </trkpt>
      <trkpt lat="48.38587" lon="2.70323">
        <ele>99</ele>
        <time>2015-12-29T10:00:07Z</time>
      </trkpt>
      <trkpt lat="48.38584" lon="2.70328">
        <ele>99</ele>
        <time>2015-12-29T10:00:11Z</time>
      </trkpt>
      <trkpt lat="48.38581" lon="2.70334">
        <ele>99</ele>
        <time>2015-12-29T10:00:17Z</time>
      </trkpt>
      <trkpt lat="48.38578" lon="2.70371">
        <ele>100</ele>
        <time>2015-12-29T10:00:45Z</time>
      </trkpt>
      <trkpt lat="48.38578" lon="2.70385">
        <ele>101</ele>
        <time>2015-12-29T10:00:55Z</time>
      </trkpt>
      <trkpt lat="48.38581" lon="2.7039">
        <ele>102</ele>
        <time>2015-12-29T10:01:01Z</time>
      </trkpt>
      <trkpt lat="48.38581" lon="2.70397">
        <ele>102</ele>
        <time>2015-12-29T10:01:05Z</time>
      </trkpt>
      <trkpt lat="48.38579" lon="2.70421">
        <ele>103</ele>
        <time>2015-12-29T10:01:21Z</time>
      </trkpt>
      <trkpt lat="48.38576" lon="2.70429">
        <ele>103</ele>
        <time>2015-12-29T10:01:27Z</time>
      </trkpt>
      <trkpt lat="48.38576" lon="2.70438">
        <ele>103</ele>
        <time>2015-12-29T10:01:33Z</time>
      </trkpt>
      <trkpt lat="48.38574" lon="2.70444">
        <ele>103</ele>
        <time>2015-12-29T10:01:39Z</time>
      </trkpt>
      <trkpt lat="48.38577" lon="2.70458">
        <ele>102</ele>
        <time>2015-12-29T10:01:52Z</time>
      </trkpt>
      <trkpt lat="48.38579" lon="2.70472">
        <ele>102</ele>
        <time>2015-12-29T10:02:01Z</time>
      </trkpt>
      <trkpt lat="48.38577" lon="2.70493">
        <ele>104</ele>
        <time>2015-12-29T10:02:19Z</time>
      </trkpt>
      <trkpt lat="48.38573" lon="2.70497">
        <ele>105</ele>
        <time>2015-12-29T10:02:22Z</time>
      </trkpt>
      <trkpt lat="48.38577" lon="2.70511">
        <ele>105</ele>
        <time>2015-12-29T10:02:36Z</time>
      </trkpt>
      <trkpt lat="48.38577" lon="2.70539">
        <ele>105</ele>
        <time>2015-12-29T10:02:57Z</time>
      </trkpt>
      <trkpt lat="48.3858" lon="2.70552">
        <ele>106</ele>
        <time>2015-12-29T10:03:11Z</time>
      </trkpt>
      <trkpt lat="48.3859" lon="2.70554">
        <ele>106</ele>
        <time>2015-12-29T10:03:24Z</time>
      </trkpt>
      <trkpt lat="48.386" lon="2.7056">
        <ele>109</ele>
        <time>2015-12-29T10:03:40Z</time>
      </trkpt>
      <trkpt lat="48.38612" lon="2.70558">
        <ele>111</ele>
        <time>2015-12-29T10:03:58Z</time>
      </trkpt>
      <trkpt lat="48.38627" lon="2.70548">
        <ele>116</ele>
        <time>2015-12-29T10:04:29Z</time>
      </trkpt>
      <trkpt lat="48.38646" lon="2.70548">
        <ele>119</ele>
        <time>2015-12-29T10:05:05Z</time>
      </trkpt>
      <trkpt lat="48.38654" lon="2.70543">
        <ele>124</ele>
        <time>2015-12-29T10:05:24Z</time>
      </trkpt>
      <trkpt lat="48.38664" lon="2.70539">
        <ele>124</ele>
        <time>2015-12-29T10:05:35Z</time>
      </trkpt>
      <trkpt lat="48.38687" lon="2.70535">
        <ele>126</ele>
        <time>2015-12-29T10:06:08Z</time>
      </trkpt>
      <trkpt lat="48.38698" lon="2.70538">
        <ele>127</ele>
        <time>2015-12-29T10:06:17Z</time>
      </trkpt>
      <trkpt lat="48.38704" lon="2.70537">
        <ele>127</ele>
        <time>2015-12-29T10:06:29Z</time>
      </trkpt>
      <trkpt lat="48.3871" lon="2.70525">
        <ele>125</ele>
        <time>2015-12-29T10:06:42Z</time>
      </trkpt>
      <trkpt lat="48.38713" lon="2.70519">
        <ele>125</ele>
        <time>2015-12-29T10:06:46Z</time>
      </trkpt>
      <trkpt lat="48.3872" lon="2.70513">
        <ele>125</ele>
        <time>2015-12-29T10:06:57Z</time>
      </trkpt>
      <trkpt lat="48.38721" lon="2.7051">
        <ele>125</ele>
        <time>2015-12-29T10:07:09Z</time>
      </trkpt>
      <trkpt lat="48.38721" lon="2.705">
        <ele>125</ele>
        <time>2015-12-29T10:07:19Z</time>
      </trkpt>
      <trkpt lat="48.3872" lon="2.70492">
        <ele>125</ele>
        <time>2015-12-29T10:07:23Z</time>
      </trkpt>
      <trkpt lat="48.38721" lon="2.70484">
        <ele>124</ele>
        <time>2015-12-29T10:07:32Z</time>
      </trkpt>
      <trkpt lat="48.38721" lon="2.70456">
        <ele>123</ele>
        <time>2015-12-29T10:07:50Z</time>
      </trkpt>
      <trkpt lat="48.3872" lon="2.70449">
        <ele>123</ele>
        <time>2015-12-29T10:07:56Z</time>
      </trkpt>
      <trkpt lat="48.38721" lon="2.70442">
        <ele>124</ele>
        <time>2015-12-29T10:08:01Z</time>
      </trkpt>
      <trkpt lat="48.38725" lon="2.7043">
        <ele>125</ele>
        <time>2015-12-29T10:08:15Z</time>
      </trkpt>
      <trkpt lat="48.38728" lon="2.70401">
        <ele>125</ele>
        <time>2015-12-29T10:08:35Z</time>
      </trkpt>
      <trkpt lat="48.38732" lon="2.70398">
        <ele>125</ele>
        <time>2015-12-29T10:08:43Z</time>
      </trkpt>
      <trkpt lat="48.38737" lon="2.70394">
        <ele>125</ele>
        <time>2015-12-29T10:08:49Z</time>
      </trkpt>
      <trkpt lat="48.38746" lon="2.70389">
        <ele>124</ele>
        <time>2015-12-29T10:09:15Z</time>
      </trkpt>
      <trkpt lat="48.38756" lon="2.70388">
        <ele>124</ele>
        <time>2015-12-29T10:09:27Z</time>
      </trkpt>
      <trkpt lat="48.38761" lon="2.70387">
        <ele>123</ele>
        <time>2015-12-29T10:09:34Z</time>
      </trkpt>
      <trkpt lat="48.38763" lon="2.70381">
        <ele>123</ele>
        <time>2015-12-29T10:09:39Z</time>
      </trkpt>
      <trkpt lat="48.38771" lon="2.70373">
        <ele>122</ele>
        <time>2015-12-29T10:09:47Z</time>
      </trkpt>
      <trkpt lat="48.38775" lon="2.70359">
        <ele>122</ele>
        <time>2015-12-29T10:09:56Z</time>
      </trkpt>
      <trkpt lat="48.38777" lon="2.70322">
        <ele>123</ele>
        <time>2015-12-29T10:10:25Z</time>
      </trkpt>
      <trkpt lat="48.38781" lon="2.70308">
        <ele>123</ele>
        <time>2015-12-29T10:10:36Z</time>
      </trkpt>
      <trkpt lat="48.38778" lon="2.70279">
        <ele>123</ele>
        <time>2015-12-29T10:10:54Z</time>
      </trkpt>
      <trkpt lat="48.3878" lon="2.70273">
        <ele>122</ele>
        <time>2015-12-29T10:11:00Z</time>
      </trkpt>
      <trkpt lat="48.38787" lon="2.70266">
        <ele>122</ele>
        <time>2015-12-29T10:11:14Z</time>
      </trkpt>
      <trkpt lat="48.38797" lon="2.70249">
        <ele>122</ele>
        <time>2015-12-29T10:11:34Z</time>
      </trkpt>
      <trkpt lat="48.38802" lon="2.70249">
        <ele>122</ele>
        <time>2015-12-29T10:11:39Z</time>
      </trkpt>
      <trkpt lat="48.3881" lon="2.7024">
        <ele>121</ele>
        <time>2015-12-29T10:11:51Z</time>
      </trkpt>
      <trkpt lat="48.38811" lon="2.70229">
        <ele>120</ele>
        <time>2015-12-29T10:12:05Z</time>
      </trkpt>
      <trkpt lat="48.38815" lon="2.70206">
        <ele>119</ele>
        <time>2015-12-29T10:12:19Z</time>
      </trkpt>
      <trkpt lat="48.38817" lon="2.70202">
        <ele>117</ele>
        <time>2015-12-29T10:12:27Z</time>
      </trkpt>
      <trkpt lat="48.3882" lon="2.70198">
        <ele>118</ele>
        <time>2015-12-29T10:14:19Z</time>
      </trkpt>
      <trkpt lat="48.3882" lon="2.70193">
        <ele>118</ele>
        <time>2015-12-29T10:14:42Z</time>
      </trkpt>
      <trkpt lat="48.38816" lon="2.70191">
        <ele>118</ele>
        <time>2015-12-29T10:15:06Z</time>
      </trkpt>
      <trkpt lat="48.38803" lon="2.70189">
        <ele>115</ele>
        <time>2015-12-29T10:16:00Z</time>
      </trkpt>
      <trkpt lat="48.38798" lon="2.70187">
        <ele>115</ele>
        <time>2015-12-29T10:16:09Z</time>
      </trkpt>
      <trkpt lat="48.38799" lon="2.70182">
        <ele>115</ele>
        <time>2015-12-29T10:16:21Z</time>
      </trkpt>
      <trkpt lat="48.38797" lon="2.70175">
        <ele>115</ele>
        <time>2015-12-29T10:16:28Z</time>
      </trkpt>
      <trkpt lat="48.38794" lon="2.70146">
        <ele>109</ele>
        <time>2015-12-29T10:17:01Z</time>
      </trkpt>
      <trkpt lat="48.38791" lon="2.70133">
        <ele>105</ele>
        <time>2015-12-29T10:17:13Z</time>
      </trkpt>
      <trkpt lat="48.38793" lon="2.70127">
        <ele>104</ele>
        <time>2015-12-29T10:17:22Z</time>
      </trkpt>
      <trkpt lat="48.38797" lon="2.70124">
        <ele>103</ele>
        <time>2015-12-29T10:17:28Z</time>
      </trkpt>
      <trkpt lat="48.38827" lon="2.70113">
        <ele>97</ele>
        <time>2015-12-29T10:18:02Z</time>
      </trkpt>
      <trkpt lat="48.3883" lon="2.70104">
        <ele>97</ele>
        <time>2015-12-29T10:18:17Z</time>
      </trkpt>
      <trkpt lat="48.3883" lon="2.70096">
        <ele>96</ele>
        <time>2015-12-29T10:18:22Z</time>
      </trkpt>
      <trkpt lat="48.38832" lon="2.7009">
        <ele>96</ele>
        <time>2015-12-29T10:18:27Z</time>
      </trkpt>
      <trkpt lat="48.38835" lon="2.70084">
        <ele>95</ele>
        <time>2015-12-29T10:18:36Z</time>
      </trkpt>
      <trkpt lat="48.3884" lon="2.70084">
        <ele>93</ele>
        <time>2015-12-29T10:18:41Z</time>
      </trkpt>
      <trkpt lat="48.38853" lon="2.70091">
        <ele>89</ele>
        <time>2015-12-29T10:19:00Z</time>
      </trkpt>
      <trkpt lat="48.38861" lon="2.70093">
        <ele>89</ele>
        <time>2015-12-29T10:19:14Z</time>
      </trkpt>
      <trkpt lat="48.38875" lon="2.70087">
        <ele>89</ele>
        <time>2015-12-29T10:19:33Z</time>
      </trkpt>
      <trkpt lat="48.38884" lon="2.70081">
        <ele>88</ele>
        <time>2015-12-29T10:19:43Z</time>
      </trkpt>
      <trkpt lat="48.38903" lon="2.70077">
        <ele>87</ele>
        <time>2015-12-29T10:20:09Z</time>
      </trkpt>
      <trkpt lat="48.38911" lon="2.70072">
        <ele>85</ele>
        <time>2015-12-29T10:20:22Z</time>
      </trkpt>
      <trkpt lat="48.38916" lon="2.70068">
        <ele>85</ele>
        <time>2015-12-29T10:20:32Z</time>
      </trkpt>
      <trkpt lat="48.38942" lon="2.70058">
        <ele>83</ele>
        <time>2015-12-29T10:21:05Z</time>
      </trkpt>
      <trkpt lat="48.38961" lon="2.70052">
        <ele>82</ele>
        <time>2015-12-29T10:21:25Z</time>
      </trkpt>
      <trkpt lat="48.38969" lon="2.70041">
        <ele>82</ele>
        <time>2015-12-29T10:21:38Z</time>
      </trkpt>
      <trkpt lat="48.38971" lon="2.70039">
        <ele>81</ele>
        <time>2015-12-29T10:21:45Z</time>
      </trkpt>
      <trkpt lat="48.38985" lon="2.7003">
        <ele>80</ele>
        <time>2015-12-29T10:22:04Z</time>
      </trkpt>
      <trkpt lat="48.38989" lon="2.70026">
        <ele>79</ele>
        <time>2015-12-29T10:22:10Z</time>
      </trkpt>
      <trkpt lat="48.38994" lon="2.70027">
        <ele>78</ele>
        <time>2015-12-29T10:22:18Z</time>
      </trkpt>
      <trkpt lat="48.39003" lon="2.7002">
        <ele>77</ele>
        <time>2015-12-29T10:22:27Z</time>
      </trkpt>
      <trkpt lat="48.39006" lon="2.70013">
        <ele>77</ele>
        <time>2015-12-29T10:22:33Z</time>
      </trkpt>
      <trkpt lat="48.3901" lon="2.70009">
        <ele>77</ele>
        <time>2015-12-29T10:22:37Z</time>
      </trkpt>
      <trkpt lat="48.39024" lon="2.70002">
        <ele>76</ele>
        <time>2015-12-29T10:22:51Z</time>
      </trkpt>
      <trkpt lat="48.39057" lon="2.69977">
        <ele>77</ele>
        <time>2015-12-29T10:23:25Z</time>
      </trkpt>
      <trkpt lat="48.39064" lon="2.69969">
        <ele>77</ele>
        <time>2015-12-29T10:23:35Z</time>
      </trkpt>
      <trkpt lat="48.39073" lon="2.69962">
        <ele>78</ele>
        <time>2015-12-29T10:23:49Z</time>
      </trkpt>
      <trkpt lat="48.39099" lon="2.69949">
        <ele>78</ele>
        <time>2015-12-29T10:24:21Z</time>
      </trkpt>
      <trkpt lat="48.39114" lon="2.69944">
        <ele>78</ele>
        <time>2015-12-29T10:24:34Z</time>
      </trkpt>
      <trkpt lat="48.39118" lon="2.6994">
        <ele>78</ele>
        <time>2015-12-29T10:24:39Z</time>
      </trkpt>
      <trkpt lat="48.39146" lon="2.69927">
        <ele>77</ele>
        <time>2015-12-29T10:25:11Z</time>
      </trkpt>
      <trkpt lat="48.3915" lon="2.69924">
        <ele>76</ele>
        <time>2015-12-29T10:25:16Z</time>
      </trkpt>
      <trkpt lat="48.39155" lon="2.6992">
        <ele>76</ele>
        <time>2015-12-29T10:25:21Z</time>
      </trkpt>
      <trkpt lat="48.39159" lon="2.69922">
        <ele>76</ele>
        <time>2015-12-29T10:25:25Z</time>
      </trkpt>
      <trkpt lat="48.39162" lon="2.69924">
        <ele>76</ele>
        <time>2015-12-29T10:25:26Z</time>
      </trkpt>
      <trkpt lat="48.39171" lon="2.69922">
        <ele>77</ele>
        <time>2015-12-29T10:25:36Z</time>
      </trkpt>
      <trkpt lat="48.39175" lon="2.69918">
        <ele>77</ele>
        <time>2015-12-29T10:25:43Z</time>
      </trkpt>
      <trkpt lat="48.3918" lon="2.69917">
        <ele>76</ele>
        <time>2015-12-29T10:25:47Z</time>
      </trkpt>
      <trkpt lat="48.39185" lon="2.69916">
        <ele>76</ele>
        <time>2015-12-29T10:25:51Z</time>
      </trkpt>
      <trkpt lat="48.39191" lon="2.69918">
        <ele>77</ele>
        <time>2015-12-29T10:25:56Z</time>
      </trkpt>
      <trkpt lat="48.39195" lon="2.69921">
        <ele>77</ele>
        <time>2015-12-29T10:26:00Z</time>
      </trkpt>
      <trkpt lat="48.39205" lon="2.69922">
        <ele>78</ele>
        <time>2015-12-29T10:26:09Z</time>
      </trkpt>
      <trkpt lat="48.3921" lon="2.69922">
        <ele>77</ele>
        <time>2015-12-29T10:26:15Z</time>
      </trkpt>
      <trkpt lat="48.39219" lon="2.69923">
        <ele>76</ele>
        <time>2015-12-29T10:26:26Z</time>
      </trkpt>
      <trkpt lat="48.39224" lon="2.69923">
        <ele>77</ele>
        <time>2015-12-29T10:26:29Z</time>
      </trkpt>
      <trkpt lat="48.39228" lon="2.69924">
        <ele>77</ele>
        <time>2015-12-29T10:26:33Z</time>
      </trkpt>
      <trkpt lat="48.39239" lon="2.69926">
        <ele>78</ele>
        <time>2015-12-29T10:26:42Z</time>
      </trkpt>
      <trkpt lat="48.39248" lon="2.69925">
        <ele>78</ele>
        <time>2015-12-29T10:26:52Z</time>
      </trkpt>
      <trkpt lat="48.39263" lon="2.69927">
        <ele>77</ele>
        <time>2015-12-29T10:27:09Z</time>
      </trkpt>
      <trkpt lat="48.39266" lon="2.69931">
        <ele>77</ele>
        <time>2015-12-29T10:27:15Z</time>
      </trkpt>
      <trkpt lat="48.39269" lon="2.69945">
        <ele>78</ele>
        <time>2015-12-29T10:27:28Z</time>
      </trkpt>
      <trkpt lat="48.39269" lon="2.69953">
        <ele>78</ele>
        <time>2015-12-29T10:27:35Z</time>
      </trkpt>
      <trkpt lat="48.39266" lon="2.69959">
        <ele>77</ele>
        <time>2015-12-29T10:27:42Z</time>
      </trkpt>
      <trkpt lat="48.39265" lon="2.69966">
        <ele>77</ele>
        <time>2015-12-29T10:27:46Z</time>
      </trkpt>
      <trkpt lat="48.39264" lon="2.69974">
        <ele>77</ele>
        <time>2015-12-29T10:27:51Z</time>
      </trkpt>
      <trkpt lat="48.39263" lon="2.69989">
        <ele>76</ele>
        <time>2015-12-29T10:28:00Z</time>
      </trkpt>
      <trkpt lat="48.39263" lon="2.70012">
        <ele>78</ele>
        <time>2015-12-29T10:28:16Z</time>
      </trkpt>
      <trkpt lat="48.39259" lon="2.70055">
        <ele>78</ele>
        <time>2015-12-29T10:28:50Z</time>
      </trkpt>
      <trkpt lat="48.39257" lon="2.70067">
        <ele>78</ele>
        <time>2015-12-29T10:28:58Z</time>
      </trkpt>
      <trkpt lat="48.39251" lon="2.70079">
        <ele>79</ele>
        <time>2015-12-29T10:29:10Z</time>
      </trkpt>
      <trkpt lat="48.39246" lon="2.701">
        <ele>79</ele>
        <time>2015-12-29T10:29:27Z</time>
      </trkpt>
      <trkpt lat="48.3924" lon="2.70112">
        <ele>79</ele>
        <time>2015-12-29T10:29:42Z</time>
      </trkpt>
      <trkpt lat="48.39232" lon="2.70136">
        <ele>80</ele>
        <time>2015-12-29T10:29:57Z</time>
      </trkpt>
      <trkpt lat="48.3922" lon="2.70185">
        <ele>81</ele>
        <time>2015-12-29T10:30:30Z</time>
      </trkpt>
      <trkpt lat="48.39217" lon="2.70191">
        <ele>81</ele>
        <time>2015-12-29T10:30:37Z</time>
      </trkpt>
      <trkpt lat="48.39216" lon="2.70207">
        <ele>81</ele>
        <time>2015-12-29T10:30:47Z</time>
      </trkpt>
      <trkpt lat="48.39202" lon="2.70258">
        <ele>82</ele>
        <time>2015-12-29T10:31:19Z</time>
      </trkpt>
      <trkpt lat="48.39192" lon="2.70299">
        <ele>84</ele>
        <time>2015-12-29T10:31:50Z</time>
      </trkpt>
      <trkpt lat="48.39182" lon="2.7034">
        <ele>85</ele>
        <time>2015-12-29T10:32:18Z</time>
      </trkpt>
    </trkseg>
  </trk>
</gpx>